createdAt,value
2022-10-08T00:01:21.032Z,66.90
2022-10-08T00:03:48.762Z,67.00
2022-10-08T00:06:18.924Z,67.10
2022-10-08T00:08:49.525Z,67.10
2022-10-08T00:11:17.196Z,67.10
2022-10-08T00:13:44.406Z,67.40
2022-10-08T00:16:15.423Z,67.60
2022-10-08T00:18:42.800Z,67.50
2022-10-08T00:21:14.510Z,67.30
2022-10-08T00:23:41.538Z,67.40
2022-10-08T00:26:08.411Z,67.30
2022-10-08T00:28:35.474Z,67.20
2022-10-08T00:31:09.616Z,66.90
2022-10-08T00:33:36.847Z,66.90
2022-10-08T00:36:04.063Z,66.80
2022-10-08T00:38:30.908Z,67.00
2022-10-08T00:40:57.775Z,66.80
2022-10-08T00:43:38.166Z,66.60
2022-10-08T00:46:05.187Z,66.50
2022-10-08T00:48:32.045Z,66.30
2022-10-08T00:50:58.873Z,66.20
2022-10-08T00:53:25.743Z,66.00
2022-10-08T00:55:52.583Z,66.10
2022-10-08T00:58:20.364Z,66.60
2022-10-08T01:00:47.936Z,66.20
2022-10-08T01:03:14.802Z,66.40
2022-10-08T01:05:50.905Z,66.60
2022-10-08T01:08:37.968Z,66.70
2022-10-08T01:11:37.538Z,66.70
2022-10-08T01:14:21.213Z,66.80
2022-10-08T01:17:03.562Z,66.70
2022-10-08T01:19:45.930Z,66.50
2022-10-08T01:22:15.815Z,66.50
2022-10-08T01:25:07.493Z,66.40
2022-10-08T01:27:39.491Z,66.40
2022-10-08T01:30:07.888Z,66.40
2022-10-08T01:32:37.362Z,66.60
2022-10-08T01:35:04.744Z,66.50
2022-10-08T01:37:32.503Z,66.50
2022-10-08T01:40:00.607Z,66.30
2022-10-08T01:42:28.284Z,66.40
2022-10-08T01:44:59.616Z,66.40
2022-10-08T01:47:28.054Z,66.40
2022-10-08T01:50:03.151Z,66.40
2022-10-08T01:52:37.308Z,66.60
2022-10-08T01:55:05.025Z,66.70
2022-10-08T01:57:32.002Z,66.70
2022-10-08T02:00:00.420Z,66.60
2022-10-08T02:02:27.464Z,66.40
2022-10-08T02:04:54.813Z,66.60
2022-10-08T02:07:31.178Z,66.50
2022-10-08T02:10:17.133Z,66.70
2022-10-08T02:12:44.659Z,66.80
2022-10-08T02:15:12.595Z,66.80
2022-10-08T02:17:46.837Z,66.70
2022-10-08T02:20:33.720Z,66.70
2022-10-08T02:23:12.875Z,66.70
2022-10-08T02:25:39.888Z,66.80
2022-10-08T02:28:06.855Z,66.80
2022-10-08T02:30:37.096Z,67.10
2022-10-08T02:33:10.316Z,67.10
2022-10-08T02:35:44.812Z,66.90
2022-10-08T02:38:19.204Z,66.80
2022-10-08T02:40:47.651Z,66.80
2022-10-08T02:43:16.445Z,66.50
2022-10-08T02:45:48.124Z,66.70
2022-10-08T02:48:26.555Z,67.10
2022-10-08T02:50:53.500Z,67.30
2022-10-08T02:53:21.456Z,67.20
2022-10-08T02:56:02.331Z,67.60
2022-10-08T02:58:29.237Z,67.50
2022-10-08T03:01:00.423Z,67.70
2022-10-08T03:03:34.960Z,68.00
2022-10-08T03:06:02.278Z,68.60
2022-10-08T03:08:30.193Z,68.00
2022-10-08T03:10:56.996Z,68.20
2022-10-08T03:13:23.777Z,68.00
2022-10-08T03:15:51.003Z,68.00
2022-10-08T03:18:17.772Z,67.80
2022-10-08T03:20:46.243Z,67.80
2022-10-08T03:23:13.712Z,67.90
2022-10-08T03:25:40.558Z,67.90
2022-10-08T03:28:07.484Z,67.80
2022-10-08T03:30:34.725Z,68.00
2022-10-08T03:33:01.662Z,67.90
2022-10-08T03:35:28.481Z,68.00
2022-10-08T03:37:55.415Z,68.00
2022-10-08T03:40:22.312Z,68.00
2022-10-08T03:42:49.521Z,68.00
2022-10-08T03:45:16.756Z,68.00
2022-10-08T03:47:43.654Z,68.10
2022-10-08T03:50:11.101Z,68.10
2022-10-08T03:52:40.469Z,68.30
2022-10-08T03:55:07.679Z,68.20
2022-10-08T03:57:34.503Z,68.20
2022-10-08T04:00:01.344Z,68.00
2022-10-08T04:02:28.184Z,67.90
2022-10-08T04:04:55.027Z,67.80
2022-10-08T04:07:21.871Z,67.50
2022-10-08T04:09:48.779Z,67.20
2022-10-08T04:12:15.591Z,67.20
2022-10-08T04:14:42.494Z,67.00
2022-10-08T04:17:09.408Z,66.90
2022-10-08T04:19:36.193Z,66.90
2022-10-08T04:22:03.065Z,67.00
2022-10-08T04:24:29.850Z,67.10
2022-10-08T04:26:56.644Z,67.20
2022-10-08T04:29:23.603Z,67.10
2022-10-08T04:31:50.418Z,67.10
2022-10-08T04:34:17.252Z,67.30
2022-10-08T04:36:44.114Z,67.50
2022-10-08T04:39:11.075Z,67.30
2022-10-08T04:41:38.012Z,67.30
2022-10-08T04:44:04.851Z,67.30
2022-10-08T04:46:31.912Z,67.40
2022-10-08T04:49:00.215Z,67.50
2022-10-08T04:51:27.328Z,67.40
2022-10-08T04:53:54.404Z,67.40
2022-10-08T04:56:22.088Z,67.20
2022-10-08T04:58:48.982Z,67.10
2022-10-08T05:01:16.656Z,67.00
2022-10-08T05:03:44.454Z,67.00
2022-10-08T05:06:11.315Z,66.80
2022-10-08T05:08:41.062Z,66.80
2022-10-08T05:11:08.004Z,66.70
2022-10-08T05:13:35.016Z,66.70
2022-10-08T05:16:06.107Z,66.70
2022-10-08T05:18:33.901Z,66.60
2022-10-08T05:21:04.570Z,66.50
2022-10-08T05:23:31.582Z,66.60
2022-10-08T05:25:58.458Z,66.60
2022-10-08T05:28:25.359Z,66.50
2022-10-08T05:30:52.398Z,66.50
2022-10-08T05:33:19.232Z,66.40
2022-10-08T05:35:46.183Z,66.20
2022-10-08T05:38:13.075Z,66.20
2022-10-08T05:40:40.149Z,66.20
2022-10-08T05:43:07.036Z,66.30
2022-10-08T05:45:33.878Z,66.20
2022-10-08T05:48:00.942Z,66.20
2022-10-08T05:50:28.018Z,66.60
2022-10-08T05:52:54.965Z,66.20
2022-10-08T05:55:21.815Z,66.30
2022-10-08T05:57:48.687Z,66.10
2022-10-08T06:00:15.766Z,65.80
2022-10-08T06:02:42.774Z,65.60
2022-10-08T06:05:09.747Z,65.10
2022-10-08T06:07:36.818Z,64.70
2022-10-08T06:10:03.897Z,64.50
2022-10-08T06:12:31.017Z,64.40
2022-10-08T06:14:58.000Z,64.40
2022-10-08T06:17:25.062Z,64.40
2022-10-08T06:19:52.075Z,64.20
2022-10-08T06:22:19.086Z,63.70
2022-10-08T06:24:46.126Z,63.30
2022-10-08T06:27:13.002Z,62.80
2022-10-08T06:29:39.960Z,61.70
2022-10-08T06:32:06.834Z,60.30
2022-10-08T06:34:33.714Z,59.00
2022-10-08T06:37:00.809Z,57.20
2022-10-08T06:39:27.752Z,55.80
2022-10-08T06:41:54.678Z,54.40
2022-10-08T06:44:21.564Z,53.20
2022-10-08T06:46:48.611Z,51.60
2022-10-08T06:49:15.816Z,50.20
2022-10-08T06:51:42.702Z,49.00
2022-10-08T06:54:09.623Z,46.40
2022-10-08T06:56:37.119Z,44.30
2022-10-08T06:59:04.544Z,42.10
2022-10-08T07:01:33.931Z,40.50
2022-10-08T07:04:01.218Z,39.20
2022-10-08T07:06:28.228Z,38.20
2022-10-08T07:08:55.689Z,37.10
2022-10-08T07:11:22.799Z,36.40
2022-10-08T07:13:49.828Z,35.50
2022-10-08T07:16:20.852Z,34.80
2022-10-08T07:18:48.865Z,34.10
2022-10-08T07:21:18.888Z,33.70
2022-10-08T07:23:45.816Z,33.70
2022-10-08T07:26:12.700Z,33.20
2022-10-08T07:28:40.628Z,32.70
2022-10-08T07:31:08.113Z,32.10
2022-10-08T07:33:35.177Z,31.80
2022-10-08T07:36:08.492Z,31.60
2022-10-08T07:38:35.544Z,31.50
2022-10-08T07:41:02.446Z,31.00
2022-10-08T07:43:29.412Z,30.60
2022-10-08T07:45:56.502Z,30.20
2022-10-08T07:48:23.639Z,30.40
2022-10-08T07:50:50.574Z,30.00
2022-10-08T07:53:17.820Z,29.80
2022-10-08T07:55:44.837Z,29.80
2022-10-08T07:58:11.678Z,29.70
2022-10-08T08:00:39.374Z,29.50
2022-10-08T08:03:06.316Z,29.20
2022-10-08T08:05:33.766Z,28.90
2022-10-08T08:08:00.598Z,28.90
2022-10-08T08:10:27.633Z,28.90
2022-10-08T08:12:54.606Z,28.70
2022-10-08T08:15:21.541Z,28.40
2022-10-08T08:17:48.383Z,28.40
2022-10-08T08:20:15.412Z,28.70
2022-10-08T08:22:42.598Z,28.70
2022-10-08T08:25:09.781Z,28.70
2022-10-08T08:27:36.745Z,28.80
2022-10-08T08:30:03.752Z,28.60
2022-10-08T08:32:30.560Z,28.10
2022-10-08T08:34:57.445Z,27.80
2022-10-08T08:37:24.248Z,28.00
2022-10-08T08:39:51.521Z,27.30
2022-10-08T08:42:24.883Z,27.40
2022-10-08T08:44:58.778Z,26.90
2022-10-08T08:47:37.945Z,27.20
2022-10-08T08:50:07.967Z,27.10
2022-10-08T08:52:37.545Z,27.10
2022-10-08T08:55:06.215Z,27.00
2022-10-08T08:57:39.406Z,26.80
2022-10-08T09:00:24.707Z,27.20
2022-10-08T09:03:02.385Z,27.20
2022-10-08T09:05:31.325Z,27.10
2022-10-08T09:08:05.467Z,27.00
2022-10-08T09:10:39.602Z,26.90
2022-10-08T09:13:07.114Z,26.50
2022-10-08T09:15:34.865Z,26.20
2022-10-08T09:18:02.658Z,25.80
2022-10-08T09:20:29.529Z,25.70
2022-10-08T09:22:56.755Z,25.80
2022-10-08T09:25:24.723Z,25.90
2022-10-08T09:27:55.557Z,25.70
2022-10-08T09:30:25.466Z,25.70
2022-10-08T09:32:56.102Z,25.90
2022-10-08T09:35:23.078Z,25.60
2022-10-08T09:37:50.165Z,25.10
2022-10-08T09:40:17.035Z,25.40
2022-10-08T09:42:43.998Z,25.40
2022-10-08T09:45:31.160Z,25.20
2022-10-08T09:48:17.127Z,25.00
2022-10-08T09:50:53.201Z,24.60
2022-10-08T09:53:20.487Z,24.70
2022-10-08T09:55:57.981Z,24.10
2022-10-08T09:58:24.864Z,23.80
2022-10-08T10:01:02.759Z,23.70
2022-10-08T10:03:29.815Z,24.20
2022-10-08T10:05:56.879Z,24.30
2022-10-08T10:08:43.429Z,23.60
2022-10-08T10:11:13.960Z,23.30
2022-10-08T10:13:40.974Z,23.50
2022-10-08T10:16:26.700Z,23.30
2022-10-08T10:19:00.413Z,23.70
2022-10-08T10:21:30.169Z,24.20
2022-10-08T10:24:10.670Z,24.50
2022-10-08T10:26:37.957Z,25.00
2022-10-08T10:29:25.079Z,25.40
2022-10-08T10:31:57.261Z,25.50
2022-10-08T10:34:24.567Z,26.20
2022-10-08T10:36:51.361Z,26.50
2022-10-08T10:39:36.930Z,26.70
2022-10-08T10:42:22.562Z,25.70
2022-10-08T10:44:53.725Z,25.10
2022-10-08T10:47:21.503Z,24.80
2022-10-08T10:49:48.416Z,25.00
2022-10-08T10:52:34.770Z,24.70
2022-10-08T10:55:07.554Z,24.40
2022-10-08T10:57:53.335Z,24.60
2022-10-08T11:00:24.130Z,24.60
2022-10-08T11:02:54.057Z,24.90
2022-10-08T11:05:21.672Z,25.30
2022-10-08T11:07:54.401Z,25.70
2022-10-08T11:10:26.319Z,25.80
2022-10-08T11:12:56.199Z,25.90
2022-10-08T11:15:36.818Z,26.20
2022-10-08T11:18:10.158Z,26.10
2022-10-08T11:20:55.962Z,26.60
2022-10-08T11:23:36.160Z,26.50
2022-10-08T11:26:21.843Z,26.60
2022-10-08T11:28:55.543Z,26.40
2022-10-08T11:31:51.798Z,25.60
2022-10-08T11:34:36.783Z,24.90
2022-10-08T11:37:06.366Z,24.00
2022-10-08T11:39:40.327Z,23.70
2022-10-08T11:42:23.171Z,23.60
2022-10-08T11:44:50.001Z,22.50
2022-10-08T11:47:35.178Z,22.50
2022-10-08T11:50:02.577Z,22.90
2022-10-08T11:52:29.831Z,23.50
2022-10-08T11:54:57.891Z,23.60
2022-10-08T11:57:49.300Z,23.30
2022-10-08T12:00:37.656Z,22.90
2022-10-08T12:03:06.160Z,22.70
2022-10-08T12:05:39.825Z,22.40
2022-10-08T12:08:06.699Z,22.60
2022-10-08T12:10:34.288Z,22.70
2022-10-08T12:13:02.135Z,22.90
2022-10-08T12:15:48.750Z,23.00
2022-10-08T12:18:26.211Z,23.20
2022-10-08T12:21:12.152Z,23.20
2022-10-08T12:23:39.128Z,23.30
2022-10-08T12:26:09.156Z,23.30
2022-10-08T12:28:35.990Z,23.40
2022-10-08T12:31:15.675Z,24.20
2022-10-08T12:33:42.525Z,24.80
2022-10-08T12:36:15.532Z,25.40
2022-10-08T12:38:42.378Z,26.00
2022-10-08T12:41:17.899Z,26.10
2022-10-08T12:43:50.326Z,26.20
2022-10-08T12:46:20.407Z,26.50
2022-10-08T12:49:00.823Z,26.20
2022-10-08T12:51:33.669Z,26.20
2022-10-08T12:54:01.044Z,26.70
2022-10-08T12:56:28.505Z,26.70
2022-10-08T12:58:59.883Z,26.60
2022-10-08T13:01:27.217Z,26.60
2022-10-08T13:04:13.989Z,27.10
2022-10-08T13:06:40.924Z,27.40
2022-10-08T13:09:13.074Z,27.90
2022-10-08T13:11:39.964Z,27.70
2022-10-08T13:14:21.651Z,27.80
2022-10-08T13:16:48.682Z,27.80
2022-10-08T13:19:19.112Z,28.00
2022-10-08T13:22:09.342Z,28.30
2022-10-08T13:24:39.643Z,28.50
2022-10-08T13:27:07.228Z,29.00
2022-10-08T13:29:34.911Z,28.90
2022-10-08T13:32:16.647Z,29.20
2022-10-08T13:34:44.301Z,29.30
2022-10-08T13:37:23.051Z,29.30
2022-10-08T13:40:01.862Z,28.90
2022-10-08T13:42:35.098Z,28.60
2022-10-08T13:45:02.322Z,28.90
2022-10-08T13:47:29.410Z,28.30
2022-10-08T13:50:00.674Z,28.10
2022-10-08T13:52:28.475Z,27.70
2022-10-08T13:54:58.991Z,27.60
2022-10-08T13:57:27.584Z,28.00
2022-10-08T13:59:54.870Z,28.00
2022-10-08T14:02:22.175Z,28.00
2022-10-08T14:04:49.164Z,28.30
2022-10-08T14:07:23.441Z,29.00
2022-10-08T14:09:50.437Z,29.30
2022-10-08T14:12:17.743Z,29.80
2022-10-08T14:14:44.628Z,30.00
2022-10-08T14:17:11.551Z,30.40
2022-10-08T14:19:38.496Z,30.80
2022-10-08T14:22:05.550Z,31.20
2022-10-08T14:24:32.445Z,31.50
2022-10-08T14:26:59.277Z,31.70
2022-10-08T14:29:26.378Z,32.30
2022-10-08T14:31:53.385Z,32.30
2022-10-08T14:34:20.363Z,32.60
2022-10-08T14:36:48.098Z,33.80
2022-10-08T14:39:17.906Z,34.50
2022-10-08T14:41:44.962Z,35.10
2022-10-08T14:44:13.556Z,35.80
2022-10-08T14:46:40.504Z,36.70
2022-10-08T14:49:07.519Z,37.50
2022-10-08T14:51:41.219Z,38.00
2022-10-08T14:54:21.656Z,38.70
2022-10-08T14:56:48.789Z,38.40
2022-10-08T14:59:16.092Z,38.60
2022-10-08T15:01:43.128Z,38.50
2022-10-08T15:04:11.235Z,38.10
2022-10-08T15:06:38.823Z,38.50
2022-10-08T15:09:05.783Z,38.30
2022-10-08T15:11:32.759Z,38.80
2022-10-08T15:13:59.675Z,38.90
2022-10-08T15:16:26.608Z,39.40
2022-10-08T15:18:53.569Z,40.00
2022-10-08T15:21:20.496Z,40.60
2022-10-08T15:23:47.454Z,40.80
2022-10-08T15:26:18.087Z,41.30
2022-10-08T15:28:46.301Z,41.70
2022-10-08T15:31:14.655Z,42.20
2022-10-08T15:33:43.017Z,42.70
2022-10-08T15:36:19.544Z,43.10
2022-10-08T15:38:47.421Z,43.30
2022-10-08T15:41:15.395Z,43.80
2022-10-08T15:43:42.245Z,44.10
2022-10-08T15:46:12.839Z,44.50
2022-10-08T15:48:39.798Z,44.80
2022-10-08T15:51:06.855Z,45.30
2022-10-08T15:53:34.630Z,46.20
2022-10-08T15:56:01.553Z,46.00
2022-10-08T15:58:49.435Z,46.60
2022-10-08T16:01:17.904Z,46.60
2022-10-08T16:03:45.719Z,46.60
2022-10-08T16:06:13.529Z,46.90
2022-10-08T16:08:41.422Z,47.30
2022-10-08T16:11:15.534Z,47.90
2022-10-08T16:13:48.186Z,48.00
2022-10-08T16:16:18.333Z,48.30
2022-10-08T16:18:45.621Z,48.70
2022-10-08T16:21:12.701Z,49.00
2022-10-08T16:23:39.728Z,49.20
2022-10-08T16:26:07.397Z,49.60
2022-10-08T16:28:35.709Z,49.70
2022-10-08T16:31:02.736Z,49.90
2022-10-08T16:33:29.694Z,49.90
2022-10-08T16:35:56.782Z,50.20
2022-10-08T16:38:24.680Z,50.20
2022-10-08T16:40:51.654Z,50.20
2022-10-08T16:43:18.597Z,50.60
2022-10-08T16:45:45.588Z,51.00
2022-10-08T16:48:12.542Z,51.10
2022-10-08T16:50:39.775Z,51.20
2022-10-08T16:53:09.776Z,51.50
2022-10-08T16:55:36.921Z,51.70
2022-10-08T16:58:03.878Z,51.60
2022-10-08T17:00:30.878Z,51.80
2022-10-08T17:02:57.792Z,52.00
2022-10-08T17:05:24.717Z,52.10
2022-10-08T17:07:51.592Z,52.10
2022-10-08T17:10:18.438Z,52.50
2022-10-08T17:12:45.556Z,52.60
2022-10-08T17:15:12.600Z,52.80
2022-10-08T17:17:39.552Z,52.90
2022-10-08T17:20:07.208Z,53.20
2022-10-08T17:22:34.134Z,53.60
2022-10-08T17:25:01.177Z,53.50
2022-10-08T17:27:28.011Z,53.70
2022-10-08T17:29:54.977Z,54.00
2022-10-08T17:32:21.827Z,54.10
2022-10-08T17:34:48.693Z,54.30
2022-10-08T17:37:15.658Z,54.40
2022-10-08T17:39:42.496Z,54.60
2022-10-08T17:42:09.400Z,54.90
2022-10-08T17:44:36.436Z,55.20
2022-10-08T17:47:03.297Z,55.30
2022-10-08T17:49:30.233Z,55.50
2022-10-08T17:51:57.211Z,55.90
2022-10-08T17:54:24.234Z,56.00
2022-10-08T17:56:51.169Z,55.90
2022-10-08T17:59:18.454Z,55.80
2022-10-08T18:01:45.960Z,56.00
2022-10-08T18:04:13.505Z,56.50
2022-10-08T18:06:43.503Z,56.60
2022-10-08T18:09:11.012Z,56.70
2022-10-08T18:11:39.070Z,56.70
2022-10-08T18:14:06.042Z,56.90
2022-10-08T18:16:32.990Z,56.90
2022-10-08T18:19:01.841Z,57.10
2022-10-08T18:21:32.062Z,57.20
2022-10-08T18:23:59.000Z,57.50
2022-10-08T18:26:26.586Z,57.60
2022-10-08T18:28:54.246Z,57.60
2022-10-08T18:31:21.740Z,57.60
2022-10-08T18:33:49.175Z,57.70
2022-10-08T18:36:17.034Z,57.90
2022-10-08T18:38:44.806Z,58.20
2022-10-08T18:41:15.161Z,58.40
2022-10-08T18:43:42.150Z,58.50
2022-10-08T18:46:09.171Z,58.60
2022-10-08T18:48:36.275Z,58.70
2022-10-08T18:51:04.096Z,58.90
2022-10-08T18:53:32.132Z,59.00
2022-10-08T18:55:59.073Z,59.10
2022-10-08T18:58:26.168Z,59.30
2022-10-08T19:00:53.481Z,59.60
2022-10-08T19:03:20.343Z,59.80
2022-10-08T19:05:47.344Z,59.80
2022-10-08T19:08:14.315Z,59.90
2022-10-08T19:10:41.256Z,60.20
2022-10-08T19:13:08.737Z,60.30
2022-10-08T19:15:37.143Z,60.50
2022-10-08T19:18:04.787Z,60.70
2022-10-08T19:20:32.306Z,60.80
2022-10-08T19:22:59.489Z,61.00
2022-10-08T19:25:30.233Z,61.90
2022-10-08T19:27:57.358Z,61.40
2022-10-08T19:30:27.404Z,61.60
2022-10-08T19:32:56.387Z,61.60
2022-10-08T19:35:25.327Z,61.50
2022-10-08T19:37:52.164Z,61.40
2022-10-08T19:40:18.999Z,61.50
2022-10-08T19:42:46.157Z,61.60
2022-10-08T19:45:13.535Z,61.60
2022-10-08T19:47:40.334Z,61.70
2022-10-08T19:50:07.425Z,61.60
2022-10-08T19:52:34.308Z,62.10
2022-10-08T19:55:01.224Z,62.30
2022-10-08T19:57:28.123Z,62.50
2022-10-08T19:59:55.229Z,62.80
2022-10-08T20:02:22.141Z,62.60
2022-10-08T20:04:49.137Z,62.50
2022-10-08T20:07:16.020Z,62.70
2022-10-08T20:09:42.964Z,62.80
2022-10-08T20:12:10.105Z,62.70
2022-10-08T20:14:37.078Z,63.30
2022-10-08T20:17:03.916Z,62.70
2022-10-08T20:19:30.810Z,62.80
2022-10-08T20:21:57.765Z,62.80
2022-10-08T20:24:24.642Z,62.80
2022-10-08T20:26:51.614Z,62.90
2022-10-08T20:29:19.693Z,62.80
2022-10-08T20:31:49.602Z,62.80
2022-10-08T20:34:17.918Z,62.90
2022-10-08T20:36:47.709Z,62.80
2022-10-08T20:39:15.077Z,62.60
2022-10-08T20:41:42.383Z,62.60
2022-10-08T20:44:09.330Z,62.60
2022-10-08T20:46:40.701Z,62.60
2022-10-08T20:49:07.701Z,62.80
2022-10-08T20:51:34.735Z,62.70
2022-10-08T20:54:05.637Z,62.70
2022-10-08T20:56:38.472Z,62.70
2022-10-08T20:59:06.360Z,63.00
2022-10-08T21:01:34.128Z,63.00
2022-10-08T21:04:01.048Z,63.00
2022-10-08T21:06:28.780Z,63.40
2022-10-08T21:08:56.217Z,63.50
2022-10-08T21:11:24.027Z,63.60
2022-10-08T21:13:50.898Z,63.70
2022-10-08T21:16:21.750Z,63.90
2022-10-08T21:18:49.324Z,64.30
2022-10-08T21:21:18.761Z,64.20
2022-10-08T21:23:45.908Z,64.10
2022-10-08T21:26:13.649Z,63.80
2022-10-08T21:28:41.655Z,63.50
2022-10-08T21:31:08.802Z,63.60
2022-10-08T21:33:36.313Z,63.90
2022-10-08T21:36:03.851Z,63.70
2022-10-08T21:38:32.174Z,64.00
2022-10-08T21:41:03.116Z,64.40
2022-10-08T21:43:30.432Z,64.90
2022-10-08T21:45:58.233Z,65.20
2022-10-08T21:48:25.118Z,65.20
2022-10-08T21:51:01.239Z,65.10
2022-10-08T21:53:28.537Z,65.00
2022-10-08T21:55:58.855Z,64.90
2022-10-08T21:58:26.438Z,64.90
2022-10-08T22:00:53.580Z,64.80
2022-10-08T22:03:20.590Z,65.00
2022-10-08T22:05:53.956Z,64.90
2022-10-08T22:08:21.212Z,64.90
2022-10-08T22:10:48.205Z,65.30
2022-10-08T22:13:15.121Z,65.20
2022-10-08T22:15:52.076Z,65.20
2022-10-08T22:18:19.277Z,65.00
2022-10-08T22:20:48.685Z,65.00
2022-10-08T22:23:16.019Z,64.80
2022-10-08T22:25:42.990Z,64.70
2022-10-08T22:28:09.890Z,64.70
2022-10-08T22:30:37.112Z,64.70
2022-10-08T22:33:04.171Z,64.80
2022-10-08T22:35:31.762Z,64.80
2022-10-08T22:37:58.891Z,64.90
2022-10-08T22:40:25.777Z,65.20
2022-10-08T22:42:52.659Z,65.20
2022-10-08T22:45:19.530Z,65.30
2022-10-08T22:47:46.566Z,65.60
2022-10-08T22:50:13.754Z,65.60
2022-10-08T22:52:40.570Z,65.60
2022-10-08T22:55:07.549Z,66.20
2022-10-08T22:57:34.415Z,65.80
2022-10-08T23:00:01.263Z,65.80
2022-10-08T23:02:28.254Z,65.50
2022-10-08T23:04:55.158Z,65.40
2022-10-08T23:07:22.009Z,65.40
2022-10-08T23:09:48.862Z,65.30
2022-10-08T23:12:15.789Z,65.40
2022-10-08T23:14:42.726Z,65.50
2022-10-08T23:17:09.535Z,65.60
2022-10-08T23:19:36.493Z,65.80
2022-10-08T23:22:03.325Z,66.00
2022-10-08T23:24:30.303Z,65.80
2022-10-08T23:26:57.141Z,65.70
2022-10-08T23:29:24.103Z,65.80
2022-10-08T23:31:51.182Z,65.60
2022-10-08T23:34:18.088Z,65.70
2022-10-08T23:36:45.635Z,65.80
2022-10-08T23:39:13.250Z,65.80
2022-10-08T23:41:40.184Z,65.90
2022-10-08T23:44:07.066Z,66.00
2022-10-08T23:46:33.865Z,65.90
2022-10-08T23:49:00.784Z,65.80
2022-10-08T23:51:32.294Z,65.90
2022-10-08T23:53:59.344Z,66.00
2022-10-08T23:56:26.147Z,66.00
2022-10-08T23:58:52.954Z,66.10
